Time;durP1;ratioP1;P1;durP2;ratioP2;P2;SDS_P1;SDS_P2;PMS_P1;PMS_P2;Temp;Humidity;BMP_temperature;BMP_pressure;BME280_temperature;BME280_humidity;BME280_pressure;Samples;Min_cycle;Max_cycle;Signal;HPM_P1;HPM_P2
2023/10/31 00:00:59;;;;;;;15.65;12.45;;;17.70;99.90;;;;;;4595418;19;20006;-74
2023/10/31 00:02:39;;;;;;;16.60;12.73;;;17.70;99.90;;;;;;4595298;19;20014;-73
2023/10/31 00:04:14;;;;;;;16.20;12.25;;;17.70;99.90;;;;;;4594107;19;19999;-73
2023/10/31 00:05:51;;;;;;;16.60;12.10;;;17.70;99.90;;;;;;4594149;19;20042;-74
2023/10/31 00:07:25;;;;;;;15.13;12.25;;;17.70;99.90;;;;;;4595546;19;20291;-74
2023/10/31 00:08:59;;;;;;;17.08;12.13;;;17.70;99.90;;;;;;4595245;19;20313;-73
2023/10/31 00:10:35;;;;;;;14.23;11.43;;;17.70;99.90;;;;;;4595177;19;20029;-74
2023/10/31 00:12:10;;;;;;;15.00;11.82;;;17.70;99.90;;;;;;4595198;19;20017;-73
2023/10/31 00:13:44;;;;;;;15.00;11.27;;;17.70;99.90;;;;;;4595475;19;20006;-73
2023/10/31 00:15:20;;;;;;;15.23;11.27;;;17.70;99.90;;;;;;4595123;19;20007;-73
2023/10/31 00:16:54;;;;;;;14.40;11.88;;;17.70;99.90;;;;;;4595421;19;20078;-73
2023/10/31 00:18:28;;;;;;;14.10;10.95;;;17.70;99.90;;;;;;4595377;19;20361;-73
2023/10/31 00:20:05;;;;;;;15.65;11.70;;;17.70;99.90;;;;;;4595135;19;20006;-74
2023/10/31 00:21:40;;;;;;;16.27;11.80;;;17.70;99.90;;;;;;4594901;19;20014;-74
2023/10/31 00:23:15;;;;;;;16.45;11.48;;;17.70;99.90;;;;;;4595046;19;20003;-73
2023/10/31 00:24:50;;;;;;;15.23;10.70;;;17.70;99.90;;;;;;4592625;19;20438;-73
2023/10/31 00:26:25;;;;;;;15.85;11.02;;;17.70;99.90;;;;;;4593163;19;20303;-74
2023/10/31 00:27:59;;;;;;;14.35;10.80;;;17.70;99.90;;;;;;4594871;19;20002;-74
2023/10/31 00:29:35;;;;;;;12.70;11.13;;;17.70;99.90;;;;;;4594998;19;20002;-74
2023/10/31 00:31:11;;;;;;;13.77;10.90;;;17.70;99.90;;;;;;4594830;19;20025;-73
2023/10/31 00:32:46;;;;;;;14.05;11.38;;;17.70;99.90;;;;;;4595204;19;20006;-74
2023/10/31 00:34:21;;;;;;;14.20;10.82;;;17.70;99.90;;;;;;4595106;19;20464;-73
2023/10/31 00:35:55;;;;;;;14.57;11.55;;;17.70;99.90;;;;;;4593850;19;20013;-73
2023/10/31 00:37:29;;;;;;;15.98;11.23;;;17.70;99.90;;;;;;4594964;19;20305;-73
2023/10/31 00:39:04;;;;;;;13.65;10.60;;;17.70;99.90;;;;;;4595430;19;20432;-73
2023/10/31 00:40:38;;;;;;;13.35;10.70;;;17.70;99.90;;;;;;4594899;19;20006;-73
2023/10/31 00:42:12;;;;;;;13.65;11.45;;;17.70;99.90;;;;;;4593279;19;20021;-73
2023/10/31 00:43:48;;;;;;;16.02;10.63;;;17.70;99.90;;;;;;4593625;19;20003;-73
2023/10/31 00:45:23;;;;;;;13.52;10.90;;;17.70;99.90;;;;;;4594028;19;20013;-73
2023/10/31 00:46:58;;;;;;;14.75;10.68;;;17.70;99.90;;;;;;4594739;19;20002;-74
2023/10/31 00:48:37;;;;;;;13.32;10.65;;;17.70;99.90;;;;;;4594443;19;20443;-74
2023/10/31 00:50:11;;;;;;;12.80;9.75;;;17.70;99.90;;;;;;4594493;19;20007;-73
2023/10/31 00:51:45;;;;;;;13.95;10.07;;;17.70;99.90;;;;;;4594626;19;20354;-73
2023/10/31 00:53:21;;;;;;;15.65;10.55;;;17.60;99.90;;;;;;4594391;19;20006;-73
2023/10/31 00:54:55;;;;;;;16.92;10.93;;;17.70;99.90;;;;;;4594233;19;20005;-73
2023/10/31 00:56:30;;;;;;;14.93;10.13;;;17.60;99.90;;;;;;4591472;19;20007;-74
2023/10/31 00:58:06;;;;;;;14.00;10.60;;;17.60;99.90;;;;;;4594252;19;20422;-73
2023/10/31 00:59:40;;;;;;;10.65;9.50;;;17.60;99.90;;;;;;4594231;19;20035;-73
2023/10/31 01:14:49;;;;;;;18.27;13.57;;;17.60;99.90;;;;;;4564227;19;20363;-73
2023/10/31 01:16:25;;;;;;;19.58;13.75;;;17.60;99.90;;;;;;4593893;19;20315;-73
2023/10/31 01:18:00;;;;;;;19.92;13.18;;;17.60;99.90;;;;;;4593958;19;20002;-73
2023/10/31 01:19:34;;;;;;;17.35;12.65;;;17.60;99.90;;;;;;4593959;19;20286;-73
2023/10/31 01:21:09;;;;;;;19.63;13.63;;;17.60;99.90;;;;;;4593956;19;20006;-74
2023/10/31 01:22:44;;;;;;;16.45;12.30;;;17.60;99.90;;;;;;4594174;19;20005;-74
2023/10/31 01:24:19;;;;;;;14.88;11.52;;;17.60;99.90;;;;;;4592789;19;20006;-74
2023/10/31 01:25:54;;;;;;;16.55;10.23;;;17.60;99.90;;;;;;4593869;19;20007;-73
2023/10/31 01:27:28;;;;;;;15.38;11.25;;;17.60;99.90;;;;;;4593976;19;20297;-74
2023/10/31 01:29:02;;;;;;;20.48;13.93;;;17.60;99.90;;;;;;4593976;19;20036;-73
2023/10/31 01:30:38;;;;;;;17.48;13.52;;;17.60;99.90;;;;;;4593763;19;20014;-74
2023/10/31 01:32:12;;;;;;;15.00;11.32;;;17.60;99.90;;;;;;4593647;19;20438;-73
2023/10/31 01:33:46;;;;;;;14.20;10.80;;;17.60;99.90;;;;;;4592570;19;20417;-74
2023/10/31 01:35:22;;;;;;;14.60;10.98;;;17.60;99.90;;;;;;4592196;19;20311;-73
2023/10/31 01:36:56;;;;;;;16.80;12.52;;;17.60;99.90;;;;;;4591916;19;19999;-73
2023/10/31 01:38:31;;;;;;;12.05;10.60;;;17.60;99.90;;;;;;4593534;19;20002;-74
2023/10/31 01:40:07;;;;;;;16.05;10.27;;;17.60;99.90;;;;;;4593563;19;20023;-73
2023/10/31 01:41:44;;;;;;;13.73;10.23;;;17.60;99.90;;;;;;4593411;19;20002;-73
2023/10/31 01:43:34;;;;;;;13.30;10.43;;;17.60;99.90;;;;;;4592355;19;20333;-73
2023/10/31 01:45:10;;;;;;;14.68;10.13;;;17.60;99.90;;;;;;4592789;19;20112;-73
2023/10/31 01:46:45;;;;;;;14.80;9.48;;;17.60;99.90;;;;;;4594078;19;20002;-74
2023/10/31 01:48:19;;;;;;;13.45;10.00;;;17.60;99.90;;;;;;4593320;19;20069;-73
2023/10/31 01:49:55;;;;;;;12.88;9.63;;;17.60;99.90;;;;;;4592046;19;20366;-73
2023/10/31 01:51:29;;;;;;;13.20;8.90;;;17.60;99.90;;;;;;4592862;19;20062;-74
2023/10/31 01:53:03;;;;;;;12.68;9.02;;;17.60;99.90;;;;;;4593229;19;20369;-73
2023/10/31 01:54:38;;;;;;;13.52;9.70;;;17.60;99.90;;;;;;4592838;19;20086;-74
2023/10/31 01:56:12;;;;;;;13.70;8.73;;;17.60;99.90;;;;;;4593127;19;20352;-73
2023/10/31 01:57:46;;;;;;;12.60;9.48;;;17.60;99.90;;;;;;4593378;19;20065;-74
2023/10/31 01:59:22;;;;;;;11.15;9.05;;;17.60;99.90;;;;;;4593156;19;20088;-73
2023/10/31 02:00:56;;;;;;;14.20;9.25;;;17.60;99.90;;;;;;4593073;19;20002;-73
2023/10/31 02:02:30;;;;;;;14.18;10.02;;;17.60;99.90;;;;;;4593008;19;20479;-74
2023/10/31 02:04:06;;;;;;;11.50;9.52;;;17.60;99.90;;;;;;4592360;19;20023;-73
2023/10/31 02:05:40;;;;;;;13.20;9.43;;;17.60;99.90;;;;;;4591750;19;20010;-73
2023/10/31 02:07:14;;;;;;;13.45;10.88;;;17.60;99.90;;;;;;4592952;19;20010;-73
2023/10/31 02:08:50;;;;;;;16.30;10.45;;;17.60;99.90;;;;;;4593015;19;20010;-73
2023/10/31 02:10:24;;;;;;;16.48;12.15;;;17.60;99.90;;;;;;4593153;19;20003;-73
2023/10/31 02:11:58;;;;;;;15.93;10.50;;;17.60;99.90;;;;;;4592872;19;20002;-73
2023/10/31 02:13:33;;;;;;;13.77;9.30;;;17.60;99.90;;;;;;4592911;19;20032;-73
2023/10/31 02:15:08;;;;;;;14.68;9.93;;;17.60;99.90;;;;;;4591629;19;20018;-73
2023/10/31 02:16:42;;;;;;;14.15;10.52;;;17.60;99.90;;;;;;4591395;19;20013;-74
2023/10/31 02:18:18;;;;;;;14.32;10.52;;;17.60;99.90;;;;;;4592336;19;20003;-74
2023/10/31 02:19:53;;;;;;;16.50;10.23;;;17.60;99.90;;;;;;4592620;19;20084;-74
2023/10/31 02:21:28;;;;;;;14.38;10.20;;;17.60;99.90;;;;;;4591295;19;20090;-74
2023/10/31 02:23:04;;;;;;;15.05;10.18;;;17.60;99.90;;;;;;4592632;19;20422;-74
2023/10/31 02:24:38;;;;;;;10.98;8.50;;;17.60;99.90;;;;;;4590081;19;20006;-74
2023/10/31 02:26:12;;;;;;;11.65;8.85;;;17.60;99.90;;;;;;4592211;19;20003;-73
2023/10/31 02:27:47;;;;;;;13.98;9.85;;;17.60;99.90;;;;;;4592991;19;20066;-73
2023/10/31 02:29:21;;;;;;;13.32;9.35;;;17.60;99.90;;;;;;4592466;19;19999;-73
2023/10/31 02:30:56;;;;;;;13.73;9.75;;;17.60;99.90;;;;;;4592479;19;20320;-73
2023/10/31 02:32:31;;;;;;;13.63;9.75;;;17.60;99.90;;;;;;4592492;19;20020;-74
2023/10/31 02:34:05;;;;;;;14.40;10.13;;;17.60;99.90;;;;;;4592716;19;19998;-73
2023/10/31 02:35:39;;;;;;;11.90;9.35;;;17.60;99.90;;;;;;4591190;19;20010;-73
2023/10/31 02:37:15;;;;;;;13.50;9.50;;;17.60;99.90;;;;;;4592602;19;20024;-73
2023/10/31 02:38:49;;;;;;;13.20;9.43;;;17.60;99.90;;;;;;4590945;19;20291;-73
2023/10/31 02:40:24;;;;;;;12.15;8.25;;;17.60;99.90;;;;;;4590922;19;20026;-73
2023/10/31 02:41:59;;;;;;;11.60;8.00;;;17.60;99.90;;;;;;4590972;19;20369;-73
2023/10/31 02:43:33;;;;;;;11.23;8.50;;;17.60;99.90;;;;;;4591915;19;20010;-74
2023/10/31 02:45:07;;;;;;;12.45;8.73;;;17.60;99.90;;;;;;4591442;19;20006;-73
2023/10/31 02:46:42;;;;;;;15.63;8.80;;;17.60;99.90;;;;;;4591157;19;20011;-73
2023/10/31 02:48:18;;;;;;;9.80;7.32;;;17.60;99.90;;;;;;4591228;19;20003;-73
2023/10/31 02:49:52;;;;;;;14.27;9.68;;;17.60;99.90;;;;;;4592090;19;20010;-73
2023/10/31 02:51:27;;;;;;;12.68;8.70;;;17.60;99.90;;;;;;4592117;19;20010;-73
2023/10/31 02:53:02;;;;;;;10.65;7.78;;;17.60;99.90;;;;;;4592025;19;20002;-73
2023/10/31 02:54:36;;;;;;;14.02;8.63;;;17.60;99.90;;;;;;4591661;19;20073;-74
2023/10/31 02:56:12;;;;;;;14.90;11.02;;;17.60;99.90;;;;;;4592067;19;20024;-73
2023/10/31 02:57:46;;;;;;;15.75;10.30;;;17.60;99.90;;;;;;4591997;19;20005;-73
2023/10/31 02:59:20;;;;;;;15.23;10.55;;;17.60;99.90;;;;;;4591934;19;19999;-73
2023/10/31 03:00:56;;;;;;;15.88;11.20;;;17.60;99.90;;;;;;4592266;19;20036;-74
2023/10/31 03:02:30;;;;;;;19.30;12.73;;;17.60;99.90;;;;;;4591917;19;20002;-74
2023/10/31 03:04:05;;;;;;;27.92;18.40;;;17.60;99.90;;;;;;4591550;19;20002;-73
2023/10/31 03:05:40;;;;;;;25.58;16.45;;;17.60;99.90;;;;;;4590689;19;20028;-73
2023/10/31 03:07:14;;;;;;;19.38;12.18;;;17.60;99.90;;;;;;4592062;19;20006;-73
2023/10/31 03:08:48;;;;;;;17.17;11.98;;;17.60;99.90;;;;;;4591983;19;20000;-74
2023/10/31 03:10:24;;;;;;;19.65;13.27;;;17.60;99.90;;;;;;4591636;19;20003;-74
2023/10/31 03:11:59;;;;;;;18.85;12.90;;;17.60;99.90;;;;;;4591936;19;19998;-74
2023/10/31 03:13:33;;;;;;;14.27;10.50;;;17.60;99.90;;;;;;4591680;19;20013;-74
2023/10/31 03:15:09;;;;;;;27.35;17.27;;;17.60;99.90;;;;;;4590546;19;20444;-74
2023/10/31 03:16:43;;;;;;;19.95;12.75;;;17.60;99.90;;;;;;4591385;19;20070;-74
2023/10/31 03:18:18;;;;;;;15.70;10.43;;;17.60;99.90;;;;;;4590537;19;20066;-73
2023/10/31 03:19:54;;;;;;;15.55;10.90;;;17.60;99.90;;;;;;4591647;19;20045;-74
2023/10/31 03:21:28;;;;;;;14.70;10.02;;;17.60;99.90;;;;;;4591873;19;20425;-73
2023/10/31 03:23:02;;;;;;;16.73;11.50;;;17.70;99.90;;;;;;4591547;19;20290;-74
2023/10/31 03:24:37;;;;;;;15.68;10.23;;;17.70;99.90;;;;;;4590665;19;20307;-73
2023/10/31 03:26:11;;;;;;;13.35;9.18;;;17.70;99.90;;;;;;4590193;19;20445;-74
2023/10/31 03:27:47;;;;;;;15.20;9.18;;;17.70;99.90;;;;;;4591067;19;20025;-74
2023/10/31 03:29:22;;;;;;;14.52;10.45;;;17.80;99.90;;;;;;4591571;19;20372;-73
2023/10/31 03:30:57;;;;;;;12.35;8.85;;;17.80;99.90;;;;;;4591436;19;20015;-74
2023/10/31 03:32:31;;;;;;;14.40;9.75;;;17.80;99.90;;;;;;4591442;19;20011;-74
2023/10/31 03:34:07;;;;;;;12.02;8.73;;;17.80;99.90;;;;;;4591479;19;20029;-74
2023/10/31 03:35:41;;;;;;;12.65;9.65;;;17.80;99.90;;;;;;4588682;19;20078;-74
2023/10/31 03:37:14;;;;;;;13.32;9.20;;;17.90;99.90;;;;;;4591028;19;20333;-74
2023/10/31 03:38:50;;;;;;;13.95;10.07;;;17.90;99.90;;;;;;4591430;19;20003;-73
2023/10/31 03:40:24;;;;;;;21.80;12.82;;;17.90;99.90;;;;;;4591298;19;20003;-74
2023/10/31 03:41:59;;;;;;;22.92;14.65;;;17.90;99.90;;;;;;4591300;19;20025;-74
2023/10/31 03:43:34;;;;;;;21.02;12.65;;;17.90;99.90;;;;;;4591123;19;20007;-73
2023/10/31 03:45:08;;;;;;;20.27;12.25;;;17.90;99.90;;;;;;4590389;19;20005;-74
2023/10/31 03:46:42;;;;;;;23.17;14.25;;;17.90;99.90;;;;;;4591455;19;20003;-73
2023/10/31 03:48:18;;;;;;;26.77;15.07;;;17.90;99.90;;;;;;4591499;19;20011;-73
2023/10/31 03:49:52;;;;;;;19.10;11.13;;;18.00;99.90;;;;;;4591108;19;20073;-73
2023/10/31 03:51:25;;;;;;;12.80;8.95;;;18.00;99.90;;;;;;4591365;19;20042;-73
2023/10/31 03:53:01;;;;;;;12.27;8.43;;;18.00;99.90;;;;;;4591601;19;20002;-73
2023/10/31 03:54:36;;;;;;;11.48;8.30;;;18.00;99.90;;;;;;4590867;19;20035;-74
2023/10/31 03:56:10;;;;;;;12.75;8.43;;;18.10;99.90;;;;;;4591049;19;20054;-74
2023/10/31 03:57:46;;;;;;;11.35;8.40;;;18.10;99.90;;;;;;4591165;19;20175;-75
2023/10/31 03:59:20;;;;;;;9.38;6.78;;;18.20;99.90;;;;;;4591934;19;20006;-74
2023/10/31 04:00:54;;;;;;;10.55;7.45;;;18.20;99.90;;;;;;4595545;19;20007;-74
2023/10/31 04:02:29;;;;;;;13.15;8.13;;;18.20;99.90;;;;;;4595553;19;20013;-74
2023/10/31 04:04:04;;;;;;;12.48;6.78;;;18.30;99.90;;;;;;4594759;19;20025;-74
2023/10/31 04:05:37;;;;;;;10.73;6.68;;;18.30;99.90;;;;;;4593770;19;20015;-74
2023/10/31 04:07:13;;;;;;;8.77;6.35;;;18.30;99.90;;;;;;4595946;19;19999;-75
2023/10/31 04:08:48;;;;;;;10.57;6.90;;;18.30;99.90;;;;;;4595316;19;20369;-74
2023/10/31 04:10:23;;;;;;;9.55;7.45;;;18.40;99.90;;;;;;4595337;19;20291;-74
2023/10/31 04:11:59;;;;;;;11.10;7.10;;;18.40;99.90;;;;;;4594079;19;20061;-74
2023/10/31 04:13:34;;;;;;;10.23;6.90;;;18.40;99.90;;;;;;4594913;19;20006;-74
2023/10/31 04:15:08;;;;;;;10.13;7.65;;;18.40;99.90;;;;;;4592397;19;20011;-74
2023/10/31 04:16:45;;;;;;;12.90;7.47;;;18.40;99.90;;;;;;4594298;19;20007;-73
2023/10/31 04:18:19;;;;;;;11.10;7.10;;;18.40;99.90;;;;;;4595180;19;20003;-73
2023/10/31 04:19:54;;;;;;;10.93;7.25;;;18.40;99.90;;;;;;4595472;19;20429;-73
2023/10/31 04:21:30;;;;;;;11.05;7.35;;;18.50;99.90;;;;;;4595290;19;20287;-73
2023/10/31 04:23:05;;;;;;;10.43;6.90;;;18.40;99.90;;;;;;4593800;19;20314;-74
2023/10/31 04:24:39;;;;;;;9.57;7.15;;;18.50;99.90;;;;;;4593433;19;20025;-74
2023/10/31 04:26:15;;;;;;;13.85;8.15;;;18.50;99.90;;;;;;4595106;19;20025;-73
2023/10/31 04:27:49;;;;;;;11.13;8.27;;;18.50;99.90;;;;;;4595082;19;20037;-74
2023/10/31 04:29:24;;;;;;;12.65;8.13;;;18.50;99.90;;;;;;4595007;19;20002;-74
2023/10/31 04:31:00;;;;;;;9.70;7.40;;;18.60;99.90;;;;;;4595057;19;20066;-74
2023/10/31 04:32:35;;;;;;;9.85;7.70;;;18.60;99.90;;;;;;4595198;19;20445;-74
2023/10/31 04:34:09;;;;;;;13.07;8.10;;;18.70;99.90;;;;;;4595151;19;20003;-74
2023/10/31 04:35:44;;;;;;;13.23;7.53;;;18.80;99.90;;;;;;4594946;19;20007;-74
2023/10/31 04:37:18;;;;;;;12.35;8.60;;;18.90;99.90;;;;;;4594840;19;19998;-74
2023/10/31 04:38:53;;;;;;;12.93;8.65;;;18.80;99.90;;;;;;4595058;19;20294;-73
2023/10/31 04:40:28;;;;;;;11.05;9.25;;;18.40;99.90;;;;;;4594873;19;20070;-73
2023/10/31 04:42:03;;;;;;;11.48;9.10;;;18.20;99.90;;;;;;4594716;19;20429;-73
2023/10/31 04:43:37;;;;;;;11.52;8.43;;;17.80;99.90;;;;;;4594531;19;20079;-73
2023/10/31 04:45:12;;;;;;;11.43;9.00;;;17.60;99.90;;;;;;4593641;19;20010;-74
2023/10/31 04:46:47;;;;;;;11.18;8.40;;;17.50;99.90;;;;;;4594645;19;20433;-74
2023/10/31 04:48:21;;;;;;;10.85;8.57;;;17.30;99.90;;;;;;4594870;19;19991;-74
2023/10/31 04:49:57;;;;;;;14.23;8.88;;;17.30;99.90;;;;;;4594934;19;20006;-74
2023/10/31 04:51:37;;;;;;;11.48;8.63;;;17.10;99.90;;;;;;4594583;19;19999;-76
2023/10/31 04:53:11;;;;;;;9.98;7.70;;;17.00;99.90;;;;;;4593348;19;20029;-74
2023/10/31 04:54:47;;;;;;;10.60;7.88;;;17.00;99.90;;;;;;4593559;19;20306;-75
2023/10/31 04:56:22;;;;;;;11.57;7.70;;;17.00;99.90;;;;;;4594730;19;20002;-75
2023/10/31 04:57:56;;;;;;;11.60;7.22;;;17.10;99.90;;;;;;4594676;19;20005;-75
2023/10/31 04:59:31;;;;;;;8.45;6.07;;;17.20;99.90;;;;;;4594490;19;20006;-76
2023/10/31 05:01:17;;;;;;;11.00;6.85;;;17.30;99.90;;;;;;4594441;19;19998;-75
2023/10/31 05:02:51;;;;;;;13.32;7.00;;;17.50;99.90;;;;;;4594461;19;20064;-75
2023/10/31 05:04:26;;;;;;;8.07;5.97;;;17.70;99.90;;;;;;4593586;19;20014;-75
2023/10/31 05:06:00;;;;;;;9.40;5.78;;;17.80;99.90;;;;;;4594295;19;20017;-74
2023/10/31 05:07:34;;;;;;;8.73;5.95;;;17.90;99.90;;;;;;4592924;19;20005;-75
2023/10/31 05:09:10;;;;;;;9.50;6.05;;;17.90;99.90;;;;;;4594179;19;20003;-74
2023/10/31 05:10:44;;;;;;;14.02;7.00;;;18.00;99.90;;;;;;4594008;19;20034;-74
2023/10/31 05:12:18;;;;;;;10.27;6.25;;;18.10;99.90;;;;;;4594190;19;20101;-74
2023/10/31 05:13:55;;;;;;;7.72;6.05;;;18.10;99.90;;;;;;4593226;19;20006;-73
2023/10/31 05:15:29;;;;;;;8.38;5.72;;;18.10;99.90;;;;;;4592155;19;20102;-73
2023/10/31 05:17:03;;;;;;;10.57;6.53;;;18.10;99.90;;;;;;4594004;19;20022;-74
2023/10/31 05:18:38;;;;;;;10.32;6.10;;;18.20;99.90;;;;;;4594044;19;20025;-74
2023/10/31 05:20:12;;;;;;;9.07;6.00;;;18.10;99.90;;;;;;4592574;19;20003;-74
2023/10/31 05:21:46;;;;;;;8.18;5.75;;;18.20;99.90;;;;;;4593527;19;20007;-74
2023/10/31 05:23:21;;;;;;;10.20;6.65;;;18.20;99.90;;;;;;4593828;19;20006;-74
2023/10/31 05:24:57;;;;;;;8.05;6.30;;;18.20;99.90;;;;;;4592483;19;20429;-74
2023/10/31 05:26:32;;;;;;;9.50;6.43;;;18.20;99.90;;;;;;4594067;19;20020;-74
2023/10/31 05:28:07;;;;;;;8.60;6.00;;;18.20;99.90;;;;;;4594125;19;20013;-75
2023/10/31 05:29:41;;;;;;;11.05;5.70;;;18.20;99.90;;;;;;4593675;19;20448;-75
2023/10/31 05:31:17;;;;;;;9.40;5.80;;;18.20;99.90;;;;;;4593704;19;20011;-75
2023/10/31 05:32:52;;;;;;;10.18;5.57;;;18.20;99.90;;;;;;4592362;19;20346;-75
2023/10/31 05:34:26;;;;;;;8.77;5.57;;;18.30;99.90;;;;;;4592870;19;20026;-75
2023/10/31 05:36:00;;;;;;;10.25;6.13;;;18.30;99.90;;;;;;4592252;19;20003;-75
2023/10/31 05:37:35;;;;;;;10.63;6.65;;;18.30;99.90;;;;;;4593308;19;20019;-75
2023/10/31 05:39:09;;;;;;;11.10;6.55;;;18.40;99.90;;;;;;4593499;19;20006;-75
2023/10/31 05:40:43;;;;;;;10.43;6.20;;;18.40;99.90;;;;;;4593793;19;20006;-75
2023/10/31 05:42:20;;;;;;;8.88;6.30;;;18.50;99.90;;;;;;4593447;19;20417;-76
2023/10/31 05:43:55;;;;;;;10.30;6.15;;;18.60;99.90;;;;;;4593151;19;20039;-75
2023/10/31 05:45:29;;;;;;;7.88;5.78;;;18.70;99.90;;;;;;4592244;19;20417;-76
2023/10/31 05:47:04;;;;;;;10.13;6.13;;;18.80;99.90;;;;;;4591880;19;20006;-76
2023/10/31 05:48:39;;;;;;;9.73;5.45;;;19.00;99.90;;;;;;4592946;19;20006;-74
2023/10/31 05:50:13;;;;;;;8.90;5.95;;;19.10;99.90;;;;;;4591987;19;20120;-73
2023/10/31 05:51:54;;;;;;;9.77;5.95;;;19.20;99.90;;;;;;4593176;19;20003;-74
2023/10/31 05:53:28;;;;;;;8.15;5.80;;;19.40;99.90;;;;;;4593505;19;20432;-74
2023/10/31 05:55:02;;;;;;;9.48;6.30;;;19.50;99.90;;;;;;4592750;19;20023;-75
2023/10/31 05:56:38;;;;;;;10.02;6.50;;;19.60;99.90;;;;;;4593332;19;20066;-74
2023/10/31 05:58:12;;;;;;;10.55;6.70;;;19.60;99.90;;;;;;4593214;19;20002;-74
2023/10/31 05:59:47;;;;;;;10.80;6.75;;;19.70;99.90;;;;;;4593416;19;20014;-74
2023/10/31 06:01:24;;;;;;;12.73;7.10;;;19.80;99.90;;;;;;4593169;19;20027;-74
2023/10/31 06:02:58;;;;;;;13.27;7.70;;;19.80;99.90;;;;;;4593017;19;19998;-74
2023/10/31 06:04:32;;;;;;;11.85;7.50;;;19.80;99.90;;;;;;4592182;19;20015;-74
2023/10/31 06:06:08;;;;;;;10.38;7.53;;;19.90;99.90;;;;;;4593228;19;20016;-75
2023/10/31 06:07:42;;;;;;;11.43;7.78;;;19.90;99.90;;;;;;4592903;19;20035;-75
2023/10/31 06:09:16;;;;;;;11.70;7.50;;;19.90;99.90;;;;;;4592613;19;20447;-75
2023/10/31 06:10:52;;;;;;;10.57;6.82;;;20.00;99.90;;;;;;4591778;19;20014;-75
2023/10/31 06:12:27;;;;;;;11.85;6.85;;;20.00;99.90;;;;;;4592778;19;20490;-75
2023/10/31 06:14:00;;;;;;;11.82;5.80;;;20.00;99.90;;;;;;4592712;19;20018;-75
2023/10/31 06:15:36;;;;;;;9.02;5.40;;;19.90;99.90;;;;;;4591426;19;20070;-75
2023/10/31 06:17:10;;;;;;;8.80;5.70;;;19.90;99.90;;;;;;4592838;19;20010;-75
2023/10/31 06:18:45;;;;;;;11.75;6.90;;;19.90;99.90;;;;;;4592979;19;19994;-75
2023/10/31 06:20:21;;;;;;;9.95;5.68;;;19.90;99.90;;;;;;4592729;19;20029;-75
2023/10/31 06:21:55;;;;;;;9.02;5.45;;;19.80;99.90;;;;;;4592246;19;20009;-75
2023/10/31 06:23:28;;;;;;;9.32;5.38;;;19.80;99.90;;;;;;4592502;19;20003;-75
2023/10/31 06:25:04;;;;;;;7.85;5.00;;;19.80;99.90;;;;;;4591393;19;20414;-75
2023/10/31 06:26:43;;;;;;;8.40;5.13;;;19.70;99.90;;;;;;4591107;19;20015;-75
2023/10/31 06:28:17;;;;;;;6.85;4.22;;;19.70;99.90;;;;;;4591197;19;20003;-75
2023/10/31 06:29:55;;;;;;;7.45;4.53;;;19.60;99.90;;;;;;4592233;19;20010;-75
2023/10/31 06:31:29;;;;;;;8.52;4.72;;;19.60;99.90;;;;;;4592523;19;20010;-75
2023/10/31 06:33:03;;;;;;;5.57;4.35;;;19.50;99.90;;;;;;4592352;19;19998;-75
2023/10/31 06:34:38;;;;;;;7.40;4.45;;;19.50;99.90;;;;;;4590969;19;20014;-75
2023/10/31 06:36:12;;;;;;;7.95;5.00;;;19.40;99.90;;;;;;4590986;19;20441;-75
2023/10/31 06:37:46;;;;;;;6.82;4.30;;;19.40;99.90;;;;;;4591946;19;20013;-75
2023/10/31 06:39:22;;;;;;;8.20;4.65;;;19.40;99.90;;;;;;4592002;19;20012;-75
2023/10/31 06:40:57;;;;;;;7.60;4.55;;;19.30;99.90;;;;;;4591776;19;20011;-75
2023/10/31 06:42:33;;;;;;;7.78;5.13;;;19.30;99.90;;;;;;4590363;19;20006;-75
2023/10/31 06:44:10;;;;;;;7.03;4.45;;;19.30;99.90;;;;;;4591394;19;20002;-76
2023/10/31 06:45:44;;;;;;;7.18;4.38;;;19.20;99.90;;;;;;4592230;19;20002;-76
2023/10/31 06:47:17;;;;;;;12.68;4.55;;;19.20;99.90;;;;;;4590934;19;20010;-76
2023/10/31 06:48:53;;;;;;;7.07;4.30;;;19.20;99.90;;;;;;4591880;19;20015;-76
2023/10/31 06:50:27;;;;;;;8.60;4.82;;;19.20;99.90;;;;;;4592133;19;19998;-76
2023/10/31 06:52:01;;;;;;;8.50;4.57;;;19.10;99.90;;;;;;4592110;19;20002;-77
2023/10/31 06:53:36;;;;;;;8.43;4.75;;;19.10;99.90;;;;;;4592059;19;20436;-75
2023/10/31 06:55:10;;;;;;;7.45;4.75;;;19.10;99.90;;;;;;4591006;19;20017;-75
2023/10/31 06:56:47;;;;;;;8.38;4.55;;;19.00;99.90;;;;;;4591381;19;20010;-75
2023/10/31 06:58:22;;;;;;;7.18;5.00;;;19.00;99.90;;;;;;4591888;19;20006;-75
2023/10/31 06:59:56;;;;;;;9.75;5.13;;;19.00;99.90;;;;;;4590320;19;20010;-75
2023/10/31 07:01:30;;;;;;;8.77;4.82;;;19.00;99.90;;;;;;4591380;19;20018;-74
2023/10/31 07:03:09;;;;;;;6.68;4.63;;;18.90;99.90;;;;;;4591835;19;20015;-76
2023/10/31 07:04:43;;;;;;;7.45;4.65;;;18.90;99.90;;;;;;4590573;19;20011;-74
2023/10/31 07:06:17;;;;;;;6.85;5.30;;;18.90;99.90;;;;;;4591777;19;20006;-74
2023/10/31 07:07:52;;;;;;;8.55;6.15;;;18.90;99.90;;;;;;4590734;19;20062;-74
2023/10/31 07:10:15;;;;;;;11.35;6.28;;;18.90;99.90;;;;;;4591009;19;20014;-74
2023/10/31 07:13:26;;;;;;;9.75;6.47;;;18.80;99.90;;;;;;4591726;19;19999;-74
2023/10/31 07:15:47;;;;;;;8.30;5.03;;;18.80;99.90;;;;;;4590447;19;20019;-75
2023/10/31 07:18:24;;;;;;;6.75;4.38;;;18.80;99.90;;;;;;4589966;19;20015;-74
2023/10/31 07:21:30;;;;;;;9.02;5.30;;;18.80;99.90;;;;;;4590183;19;20322;-74
2023/10/31 07:23:26;;;;;;;8.13;5.70;;;18.80;99.90;;;;;;4587967;19;20010;-73
2023/10/31 07:25:03;;;;;;;7.78;4.93;;;18.80;99.90;;;;;;4589320;19;20013;-74
2023/10/31 07:26:37;;;;;;;8.18;4.68;;;18.80;99.90;;;;;;4590857;19;20338;-74
2023/10/31 07:28:11;;;;;;;9.85;5.32;;;18.80;99.90;;;;;;4591399;19;20057;-74
2023/10/31 07:29:46;;;;;;;9.05;5.20;;;18.80;99.90;;;;;;4591465;19;20013;-74
2023/10/31 07:31:20;;;;;;;8.02;5.80;;;18.80;99.90;;;;;;4591395;19;20003;-74
2023/10/31 07:32:54;;;;;;;9.60;5.28;;;18.80;99.90;;;;;;4591357;19;20437;-73
2023/10/31 07:34:30;;;;;;;6.47;4.15;;;18.80;99.90;;;;;;4592150;19;20006;-74
2023/10/31 07:36:07;;;;;;;7.60;4.10;;;18.80;99.90;;;;;;4596244;19;20006;-74
2023/10/31 07:37:41;;;;;;;7.72;4.53;;;18.80;99.90;;;;;;4596247;19;20003;-74
2023/10/31 07:39:17;;;;;;;9.23;4.45;;;18.80;99.90;;;;;;4595988;19;20006;-74
2023/10/31 07:40:51;;;;;;;6.97;4.10;;;18.80;99.90;;;;;;4595902;19;20002;-74
2023/10/31 07:42:25;;;;;;;7.32;4.35;;;18.80;99.90;;;;;;4595902;19;19999;-74
2023/10/31 07:44:03;;;;;;;9.10;4.60;;;18.80;99.90;;;;;;4594715;19;20006;-73
2023/10/31 07:45:39;;;;;;;7.25;3.97;;;18.80;99.90;;;;;;4592519;19;20007;-74
2023/10/31 07:47:13;;;;;;;7.47;3.85;;;18.80;99.90;;;;;;4595435;19;20318;-74
2023/10/31 07:48:48;;;;;;;6.72;4.18;;;18.80;99.90;;;;;;4593321;19;20014;-74
2023/10/31 07:50:23;;;;;;;7.05;4.28;;;18.90;99.90;;;;;;4594197;19;20062;-74
2023/10/31 07:51:57;;;;;;;10.27;4.85;;;18.90;99.90;;;;;;4595807;19;20069;-74
2023/10/31 07:53:32;;;;;;;8.07;4.80;;;18.90;99.90;;;;;;4596273;19;20035;-75
2023/10/31 07:55:06;;;;;;;7.68;4.70;;;18.90;99.90;;;;;;4593224;19;20002;-75
2023/10/31 07:56:40;;;;;;;6.15;4.20;;;18.90;99.90;;;;;;4595161;19;20010;-75
2023/10/31 07:58:15;;;;;;;8.65;5.18;;;18.90;99.90;;;;;;4596090;19;20019;-75
2023/10/31 07:59:50;;;;;;;7.93;5.10;;;18.90;99.90;;;;;;4595868;19;19999;-74
2023/10/31 08:01:24;;;;;;;7.00;4.38;;;18.90;99.90;;;;;;4595808;19;20066;-74
2023/10/31 08:02:59;;;;;;;7.45;4.43;;;18.90;99.90;;;;;;4595871;19;20444;-74
2023/10/31 08:04:33;;;;;;;9.02;4.93;;;18.90;99.90;;;;;;4594338;19;20310;-74
2023/10/31 08:06:07;;;;;;;8.30;4.07;;;18.90;99.90;;;;;;4595444;19;20433;-74
2023/10/31 08:07:42;;;;;;;8.90;4.90;;;18.90;99.90;;;;;;4595524;19;20003;-74
2023/10/31 08:09:16;;;;;;;14.05;5.43;;;18.90;99.90;;;;;;4595440;19;20003;-74
2023/10/31 08:10:50;;;;;;;9.23;4.28;;;18.90;99.90;;;;;;4595306;19;20310;-74
2023/10/31 08:12:26;;;;;;;8.68;4.70;;;18.80;99.90;;;;;;4595679;19;20306;-74
2023/10/31 08:14:01;;;;;;;6.97;4.00;;;18.80;99.90;;;;;;4595322;19;20002;-74
2023/10/31 08:15:35;;;;;;;9.52;4.25;;;18.80;99.90;;;;;;4593403;19;20022;-74
2023/10/31 08:17:11;;;;;;;7.53;3.75;;;18.80;99.90;;;;;;4595365;19;20003;-74
2023/10/31 08:18:45;;;;;;;7.07;3.97;;;18.80;99.90;;;;;;4594237;19;19999;-74
2023/10/31 08:20:19;;;;;;;8.45;4.22;;;18.80;99.90;;;;;;4594772;19;20003;-74
2023/10/31 08:21:54;;;;;;;9.43;4.45;;;18.80;99.90;;;;;;4595688;19;20078;-74
2023/10/31 08:23:28;;;;;;;7.18;4.15;;;18.80;99.90;;;;;;4595139;19;19999;-74
2023/10/31 08:25:03;;;;;;;6.43;3.80;;;18.70;99.90;;;;;;4593539;19;20018;-74
2023/10/31 08:26:38;;;;;;;8.52;3.78;;;18.70;99.90;;;;;;4595103;19;20048;-74
2023/10/31 08:28:12;;;;;;;7.20;4.35;;;18.70;99.90;;;;;;4594786;19;20007;-74